Aviation Digital Data Service (ADDS)

Output produced by METARs form (0647 UTC 24 March 2019)
found at http://www.aviationweather.gov/metar/data/
 
LSMA 240620Z AUTO VRB02KT 9999NDV NCD 00/M02 Q1025 RMK
LSZB 240620Z 14002KT CAVOK M01/M01 Q1025 NOSIG
TAF LSZB 240525Z 2406/2415 VRB03KT CAVOK 
     PROB40 2406/2408 5000 NSC
       
LSME 240620Z AUTO 00000KT 8000NDV NCD 02/M01 Q1025 RMK
LSGG 240620Z VRB01KT CAVOK 02/M00 Q1025 NOSIG
TAF LSGG 240525Z 2406/2512 VRB03KT CAVOK TX18/2415Z TN00/2406Z TN01/2506Z 
     TEMPO 2417/2420 34010KT
       
LSGC 240620Z AUTO 00000KT CAVOK 00/M02 Q1024
TAF LSGC 240525Z 2406/2415 VRB03KT CAVOK 
     TEMPO 2412/2415 34010KT
       
LSZA 240620Z VRB01KT CAVOK 03/02 Q1024 NOSIG
TAF LSZA 240525Z 2406/2415 VRB03KT CAVOK
       
LSMM 240620Z AUTO VRB02KT 9999NDV NCD M01/M03 Q1025 RMK
LSMP 240620Z AUTO VRB01KT 9999NDV NCD 01/M01 Q1025 RMK
LSZS 240620Z AUTO VRB02KT CAVOK M07/M09 Q1026
TAF LSZS 240525Z 2406/2415 23005KT CAVOK TX06/2413Z 
     BECMG 2412/2415 21012KT 9999 FEW050
       
LSGS 240620Z 00000KT CAVOK 04/M01 Q1026
TAF LSGS 240525Z 2406/2415 VRB03KT CAVOK
       
LSZR 240620Z AUTO 11003KT CAVOK 03/02 Q1025
LSZH 240620Z 00000KT CAVOK 01/M00 Q1025 NOSIG
TAF LSZH 240525Z 2406/2512 VRB03KT CAVOK TX17/2415Z TN01/2406Z TN06/2505Z 
     BECMG 2410/2412 28007KT 
     BECMG 2417/2419 VRB03KT 9999 SCT040